createdAt,value
2022-08-17T00:03:55.508Z,19.13
2022-08-17T00:14:08.484Z,19.09
2022-08-17T00:24:16.211Z,19.03
2022-08-17T00:34:25.676Z,18.94
2022-08-17T00:44:35.183Z,18.89
2022-08-17T00:54:46.011Z,18.93
2022-08-17T01:04:56.083Z,19.02
2022-08-17T01:15:03.380Z,18.98
2022-08-17T01:25:12.748Z,18.90
2022-08-17T01:35:18.384Z,18.69
2022-08-17T01:45:22.658Z,18.51
2022-08-17T01:55:27.763Z,18.40
2022-08-17T02:05:33.173Z,18.32
2022-08-17T02:15:41.730Z,18.34
2022-08-17T02:25:48.080Z,18.33
2022-08-17T02:35:54.996Z,18.23
2022-08-17T02:46:02.040Z,18.25
2022-08-17T02:56:09.639Z,18.13
2022-08-17T03:06:16.830Z,18.02
2022-08-17T03:16:23.798Z,17.97
2022-08-17T03:26:32.510Z,17.93
2022-08-17T03:36:39.519Z,17.92
2022-08-17T03:47:04.184Z,17.90
2022-08-17T03:57:13.235Z,17.99
2022-08-17T04:07:19.398Z,18.24
2022-08-17T04:17:23.477Z,18.46
2022-08-17T04:27:30.724Z,18.69
2022-08-17T04:37:37.669Z,19.29
2022-08-17T04:47:44.706Z,20.68
2022-08-17T04:57:50.934Z,21.61
2022-08-17T05:07:59.494Z,22.39
2022-08-17T05:18:05.556Z,23.45
2022-08-17T05:28:13.579Z,24.10
2022-08-17T05:38:23.201Z,24.88
2022-08-17T05:48:39.059Z,25.30
2022-08-17T05:58:49.034Z,26.30
2022-08-17T06:08:55.250Z,27.03
2022-08-17T06:19:00.009Z,27.41
2022-08-17T06:29:18.564Z,28.02
2022-08-17T06:39:36.228Z,28.74
2022-08-17T06:49:47.866Z,29.20
2022-08-17T07:00:00.388Z,29.37
2022-08-17T07:10:10.522Z,28.87
2022-08-17T07:20:21.531Z,28.47
2022-08-17T07:30:31.283Z,28.54
2022-08-17T07:41:00.280Z,28.11
2022-08-17T07:51:16.192Z,28.90
2022-08-17T08:01:23.352Z,29.05
2022-08-17T08:11:41.269Z,29.37
2022-08-17T08:22:00.159Z,29.80
2022-08-17T08:32:09.762Z,29.19
2022-08-17T08:42:19.416Z,28.96
2022-08-17T08:52:30.946Z,28.78
2022-08-17T09:03:04.221Z,29.09
2022-08-17T09:13:20.276Z,29.84
2022-08-17T09:23:27.160Z,30.30
2022-08-17T09:33:39.236Z,30.09
2022-08-17T09:43:50.762Z,29.97
2022-08-17T09:54:14.756Z,30.15
2022-08-17T10:04:32.812Z,30.55
2022-08-17T10:14:55.089Z,29.96
2022-08-17T10:25:24.816Z,30.52
2022-08-17T10:35:40.757Z,31.11
2022-08-17T10:45:48.443Z,30.59
2022-08-17T10:56:21.885Z,30.13
2022-08-17T11:06:36.377Z,30.47
2022-08-17T11:16:43.220Z,30.64
2022-08-17T11:27:02.431Z,30.46
2022-08-17T11:37:25.467Z,30.43
2022-08-17T11:48:08.938Z,30.18
2022-08-17T11:58:37.472Z,30.08
2022-08-17T12:08:50.745Z,29.90
2022-08-17T12:19:04.073Z,30.18
2022-08-17T12:29:18.448Z,30.44
